Kotohira Maru No.8 — JL6457 — position and weather

sailwx.info

Track history (hours):
 
Tides and Currents Weather Stations Pressure Air Temp Water Temp Dewpoint Dewpoint Depression Visibility Wind Speed Wind Dir Waves Ship Positions

Kotohira Maru No.8

Last reported at 2018-Feb-23 12:29 UTC. Time now 2018-Feb-23 12:54 UTC.
Position N 34°36' E 138°56'.

Length 73 m; draft 4.3 m.

Type: Cargo ship. MMSI: 431500458.

Date/timePositionNaut miles runAvg speedWind from/ knotsBaromVisibWave heightAir tempDewpointWater temp
2018-Feb-23 12:29N 34°36' E 138°56'510.3
2018-Feb-23 11:58N 34°40' E 139°01'510.9
2018-Feb-23 11:30N 34°44' E 139°04'1210.2
2018-Feb-23 10:21N 34°53' E 139°12'5 9.4
2018-Feb-23 09:48N 34°56' E 139°17'3 9.4
2018-Feb-23 09:28N 34°58' E 139°21'4 9.2
2018-Feb-23 09:00N 35°00' E 139°25'5 9.5
2018-Feb-23 08:28N 35°03' E 139°30'510.2
2018-Feb-23 08:00N 35°05' E 139°36'510.2
2018-Feb-23 07:30N 35°07' E 139°41'510.1
2018-Feb-23 07:00N 35°11' E 139°45'510.2
2018-Feb-23 06:30N 35°16' E 139°46'510.2
2018-Feb-23 06:00N 35°20' E 139°42'5 9.9
2018-Feb-23 05:30N 35°25' E 139°43'510.6
2018-Feb-23 05:01N 35°29' E 139°48'5 9.5
2018-Feb-23 04:29N 35°33' E 139°49'3 5.7
2018-Feb-23 04:00N 35°35' E 139°46'0 0.0
2018-Feb-23 03:30N 35°35' E 139°46'0 0.0
2018-Feb-23 03:00N 35°35' E 139°46'0 0.0
2018-Feb-23 02:30N 35°35' E 139°46'0 0.0
2018-Feb-23 02:00N 35°35' E 139°46'0 0.0
2018-Feb-23 01:30N 35°35' E 139°46'0 0.0
2018-Feb-23 01:00N 35°35' E 139°46'0 0.0
2018-Feb-23 00:29N 35°35' E 139°46'0 0.0
2018-Feb-22 23:59N 35°35' E 139°46'0 0.0
2018-Feb-22 23:29N 35°35' E 139°46'0 0.0
2018-Feb-22 23:00N 35°35' E 139°46'0 0.1
2018-Feb-22 22:30N 35°35' E 139°46'4 7.9
2018-Feb-22 22:00N 35°33' E 139°50'2 5.0
2018-Feb-22 21:30N 35°30' E 139°50'0 0.0
2018-Feb-22 20:58N 35°30' E 139°50'0 0.1
2018-Feb-22 20:28N 35°30' E 139°50'0 0.1
2018-Feb-22 19:55N 35°30' E 139°50'0 0.0
2018-Feb-22 19:25N 35°30' E 139°50'0 0.0
2018-Feb-22 18:58N 35°30' E 139°50'0 0.0
2018-Feb-22 18:28N 35°30' E 139°50'0 0.0
2018-Feb-22 17:58N 35°30' E 139°50'0 0.0
2018-Feb-22 17:28N 35°30' E 139°50'0 0.0
2018-Feb-22 16:58N 35°30' E 139°50'0 0.0
2018-Feb-22 16:28N 35°30' E 139°50'0 0.0
2018-Feb-22 15:55N 35°30' E 139°50'0 0.0
2018-Feb-22 15:28N 35°30' E 139°50'0 0.0
2018-Feb-22 14:58N 35°30' E 139°50'0 0.0
2018-Feb-22 14:28N 35°30' E 139°50'0 0.0
2018-Feb-22 13:58N 35°30' E 139°50'0 0.0
2018-Feb-22 13:28N 35°30' E 139°50'0 0.1
2018-Feb-22 12:58N 35°30' E 139°50'0 0.0
2018-Feb-22 12:28N 35°30' E 139°50'0 0.0
2018-Feb-22 11:58N 35°30' E 139°50'0 0.0
2018-Feb-22 11:28N 35°30' E 139°50'0 0.0
2018-Feb-22 10:58N 35°30' E 139°50'0 0.0
2018-Feb-22 10:28N 35°30' E 139°50'0 0.0
2018-Feb-22 09:58N 35°30' E 139°50'0 0.0
2018-Feb-22 09:28N 35°30' E 139°50'0 0.0
2018-Feb-22 08:58N 35°30' E 139°50'0 0.0
2018-Feb-22 08:31N 35°30' E 139°50'0 0.0
2018-Feb-22 08:00N 35°30' E 139°50'1 1.2
2018-Feb-22 07:30N 35°30' E 139°50'4 7.3
2018-Feb-22 07:00N 35°31' E 139°45'0 0.0
2018-Feb-22 06:30N 35°31' E 139°45'0 0.0
2018-Feb-22 05:58N 35°31' E 139°45'0 0.0
2018-Feb-22 05:28N 35°31' E 139°45'0 0.0
2018-Feb-22 04:55N 35°31' E 139°45'0 0.0
2018-Feb-22 04:28N 35°31' E 139°45'0 0.0
2018-Feb-22 03:55N 35°31' E 139°45'0 0.0
2018-Feb-22 03:28N 35°31' E 139°45'0 0.0
2018-Feb-22 03:00N 35°31' E 139°45'0 0.0
2018-Feb-22 02:30N 35°31' E 139°45'0 0.0
2018-Feb-22 02:01N 35°31' E 139°45'2 4.3
2018-Feb-22 01:31N 35°30' E 139°48'5 9.2
2018-Feb-22 01:01N 35°25' E 139°46'4 9.0
2018-Feb-22 00:31N 35°21' E 139°45'4 8.2
2018-Feb-22 00:00N 35°17' E 139°45'5 9.0
2018-Feb-21 23:30N 35°13' E 139°47'5 9.3
2018-Feb-21 23:01N 35°08' E 139°45'6 9.2
2018-Feb-21 22:23N 35°04' E 139°41'3 8.9
2018-Feb-21 22:00N 35°02' E 139°37'5 9.1
2018-Feb-21 21:28N 34°59' E 139°33'10 8.9
2018-Feb-21 20:21N 34°53' E 139°23'3 9.0
2018-Feb-21 20:00N 34°51' E 139°20'5 9.4
2018-Feb-21 19:30N 34°48' E 139°15'5 9.4
2018-Feb-21 18:59N 34°45' E 139°11'4 9.2
2018-Feb-21 18:30N 34°42' E 139°07'4 8.8
2018-Feb-21 18:00N 34°39' E 139°03'510.4
2018-Feb-21 17:29N 34°36' E 138°58'610.3
2018-Feb-21 16:54N 34°34' E 138°51'5 9.8
2018-Feb-21 16:23N 34°33' E 138°45'4 9.9
2018-Feb-21 16:00N 34°33' E 138°40'510.0
2018-Feb-21 15:29N 34°32' E 138°34'5 9.8
2018-Feb-21 14:57N 34°32' E 138°27'510.3
2018-Feb-21 14:25N 34°32' E 138°21'510.3
2018-Feb-21 13:58N 34°32' E 138°15'710.8
2018-Feb-21 13:20N 34°31' E 138°07'510.3
2018-Feb-21 12:54N 34°31' E 138°02'65 9.5
2018-Feb-21 06:04N 34°14' E 136°45'210.0
2018-Feb-21 05:51N 34°14' E 136°43'10 1.5
2018-Feb-20 23:19N 34°13' E 136°31'24 1.3
2018-Feb-20 05:03N 34°29' E 136°52'111.1
2018-Feb-20 04:59N 34°29' E 136°52'510.9
2018-Feb-20 04:30N 34°33' E 136°47'611.7
2018-Feb-20 03:58N 34°37' E 136°41'611.2
2018-Feb-20 03:28N 34°38' E 136°35'2 2.0
2018-Feb-20 02:43N 34°37' E 136°33'0 0.0
2018-Feb-20 02:20N 34°37' E 136°33'0 0.0
2018-Feb-19 23:47N 34°37' E 136°33'0 0.0
2018-Feb-19 23:25N 34°37' E 136°33'0 0.0
2018-Feb-19 23:00N 34°37' E 136°33'0 0.0
2018-Feb-19 22:30N 34°37' E 136°33'0 0.0
2018-Feb-19 21:59N 34°37' E 136°33'2 3.7
2018-Feb-19 21:28N 34°38' E 136°35'3 5.2
2018-Feb-19 20:55N 34°38' E 136°38'4 9.5
2018-Feb-19 20:29N 34°37' E 136°43'5 9.5
2018-Feb-19 19:58N 34°33' E 136°47'5 9.1
2018-Feb-19 19:27N 34°30' E 136°51'17 6.3
2018-Feb-19 16:43N 34°14' E 136°45'410.4
2018-Feb-19 16:22N 34°12' E 136°41'81 7.9
2018-Feb-19 06:02N 33°45' E 135°09'110.3
2018-Feb-19 05:54N 33°46' E 135°08'410.3
2018-Feb-19 05:30N 33°49' E 135°04'510.5
2018-Feb-19 05:00N 33°53' E 135°01'510.4
2018-Feb-19 04:30N 33°57' E 134°57'510.2
2018-Feb-19 03:59N 34°02' E 134°53'510.5
2018-Feb-19 03:30N 34°05' E 134°49'510.5
2018-Feb-19 03:00N 34°09' E 134°44'510.5
2018-Feb-19 02:30N 34°13' E 134°40'510.3
2018-Feb-19 02:00N 34°16' E 134°35'5 9.7
2018-Feb-19 01:30N 34°18' E 134°30'5 9.8
2018-Feb-19 01:00N 34°20' E 134°25'12 9.0
2018-Feb-18 23:42N 34°24' E 134°11'2 8.5
2018-Feb-18 23:27N 34°25' E 134°09'5 0.5
2018-Feb-18 12:09N 34°27' E 134°03'512.7
2018-Feb-18 11:48N 34°26' E 134°08'512.8
2018-Feb-18 11:24N 34°24' E 134°14'511.9
2018-Feb-18 10:59N 34°25' E 134°20'611.7
2018-Feb-18 10:30N 34°27' E 134°27'611.3
2018-Feb-18 10:00N 34°29' E 134°33'611.2
2018-Feb-18 09:30N 34°31' E 134°39'510.8
2018-Feb-18 09:00N 34°33' E 134°46'510.3
2018-Feb-18 08:30N 34°35' E 134°51'5 9.4
2018-Feb-18 08:00N 34°37' E 134°56'4 8.1
2018-Feb-18 07:30N 34°37' E 135°01'4 7.8
2018-Feb-18 07:00N 34°36' E 135°06'510.6
2018-Feb-18 06:30N 34°37' E 135°12'510.2
2018-Feb-18 06:00N 34°39' E 135°18'3 6.5
2018-Feb-18 05:30N 34°42' E 135°17'0 0.0
2018-Feb-18 05:00N 34°42' E 135°17'0 0.0
2018-Feb-18 04:29N 34°42' E 135°17'0 0.0
2018-Feb-18 04:00N 34°42' E 135°17'0 0.0
2018-Feb-18 03:30N 34°42' E 135°17'0 0.0
2018-Feb-18 03:00N 34°42' E 135°17'0 0.0
2018-Feb-18 02:30N 34°42' E 135°17'0 0.0
2018-Feb-18 02:00N 34°42' E 135°17'0 0.0
2018-Feb-18 01:30N 34°42' E 135°17'0 0.0
2018-Feb-18 01:00N 34°42' E 135°17'0 0.0
2018-Feb-18 00:30N 34°42' E 135°17'0 0.0
2018-Feb-18 00:00N 34°42' E 135°17'0 0.0
2018-Feb-17 23:30N 34°42' E 135°17'0 0.0
2018-Feb-17 23:01N 34°42' E 135°17'4 7.6
2018-Feb-17 22:30N 34°39' E 135°19'0 0.2
2018-Feb-17 22:00N 34°39' E 135°19'0 0.0
2018-Feb-17 21:30N 34°39' E 135°19'0 0.1
2018-Feb-17 21:00N 34°39' E 135°19'0 0.1
2018-Feb-17 20:30N 34°39' E 135°19'0 0.1
2018-Feb-17 20:00N 34°39' E 135°19'4 7.0
2018-Feb-17 19:30N 34°36' E 135°17'510.1
2018-Feb-17 19:00N 34°31' E 135°14'5 9.5
2018-Feb-17 18:30N 34°27' E 135°11'5 9.3
2018-Feb-17 18:00N 34°23' E 135°08'5 9.2
2018-Feb-17 17:30N 34°20' E 135°05'4 7.8
2018-Feb-17 17:00N 34°16' E 135°03'4 8.8
2018-Feb-17 16:30N 34°12' E 135°02'5 9.1
2018-Feb-17 16:00N 34°07' E 135°02'5 9.0
2018-Feb-17 15:30N 34°03' E 135°02'4 8.8
2018-Feb-17 15:00N 33°58' E 135°02'4 8.1
2018-Feb-17 14:29N 33°54' E 135°02'59 6.5
2018-Feb-17 05:24N 33°53' E 136°14'510.5
2018-Feb-17 04:54N 33°57' E 136°18'118 9.0
2018-Feb-16 15:42N 34°34' E 138°34'4 9.1
2018-Feb-16 15:17N 34°35' E 138°38'3 8.7
2018-Feb-16 14:58N 34°35' E 138°42'4 8.8
2018-Feb-16 14:30N 34°35' E 138°47'6 8.4
2018-Feb-16 13:43N 34°37' E 138°54'4 8.9
2018-Feb-16 13:19N 34°39' E 138°58'3 8.7
2018-Feb-16 12:57N 34°41' E 139°01'26 9.7
2018-Feb-16 10:17N 34°59' E 139°23'3 9.2
2018-Feb-16 10:00N 35°00' E 139°26'4 9.1
2018-Feb-16 09:30N 35°03' E 139°30'5 9.8
2018-Feb-16 08:59N 35°05' E 139°36'510.6
2018-Feb-16 08:30N 35°07' E 139°41'510.4
2018-Feb-16 08:00N 35°12' E 139°45'2 3.7
2018-Feb-16 07:29N 35°14' E 139°43'0 0.0
2018-Feb-16 07:00N 35°14' E 139°43'0 0.0
2018-Feb-16 06:30N 35°14' E 139°43'0 0.0
2018-Feb-16 05:58N 35°14' E 139°43'0 0.0
2018-Feb-16 05:30N 35°14' E 139°43'0 0.0
2018-Feb-16 05:00N 35°14' E 139°43'0 0.0
2018-Feb-16 04:30N 35°14' E 139°43'0 0.0
2018-Feb-16 04:00N 35°14' E 139°43'1 2.6
2018-Feb-16 03:30N 35°14' E 139°45'3 5.9
2018-Feb-16 03:00N 35°17' E 139°45'510.7
2018-Feb-16 02:30N 35°21' E 139°42'510.6
2018-Feb-16 02:00N 35°26' E 139°45'611.3
2018-Feb-16 01:30N 35°30' E 139°50'0 0.7
2018-Feb-16 01:00N 35°30' E 139°50'0 0.0
2018-Feb-16 00:30N 35°30' E 139°50'0 0.0
2018-Feb-16 00:00N 35°30' E 139°50'0 0.0
2018-Feb-15 23:30N 35°30' E 139°50'0 0.0
2018-Feb-15 23:00N 35°30' E 139°50'0 0.0
2018-Feb-15 22:30N 35°30' E 139°50'0 0.0
2018-Feb-15 22:00N 35°30' E 139°50'0 0.0
2018-Feb-15 21:30N 35°30' E 139°50'0 0.0
2018-Feb-15 21:00N 35°30' E 139°50'0 0.0
2018-Feb-15 20:30N 35°30' E 139°50'0 0.0
2018-Feb-15 19:57N 35°30' E 139°50'0 0.0
2018-Feb-15 19:30N 35°30' E 139°50'0 0.0
2018-Feb-15 18:57N 35°30' E 139°50'0 0.0
2018-Feb-15 18:30N 35°30' E 139°50'0 0.0
2018-Feb-15 17:57N 35°30' E 139°50'0 0.1
2018-Feb-15 17:30N 35°30' E 139°50'0 0.1
2018-Feb-15 17:00N 35°30' E 139°50'0 0.0
2018-Feb-15 16:30N 35°30' E 139°50'0 0.0
2018-Feb-15 16:00N 35°30' E 139°50'0 0.1
2018-Feb-15 15:27N 35°30' E 139°50'0 0.1
2018-Feb-15 14:54N 35°30' E 139°50'0 0.0
2018-Feb-15 14:30N 35°30' E 139°50'0 0.0
2018-Feb-15 14:00N 35°30' E 139°50'0 0.0
2018-Feb-15 13:30N 35°30' E 139°50'0 0.1
2018-Feb-15 12:57N 35°30' E 139°50'0 0.0
2018-Feb-15 12:24N 35°30' E 139°50'0 0.0
2018-Feb-15 12:00N 35°30' E 139°50'0 0.0
2018-Feb-15 11:30N 35°30' E 139°50'0 0.0
2018-Feb-15 11:00N 35°30' E 139°50'0 0.0
2018-Feb-15 10:27N 35°30' E 139°50'0 0.1
2018-Feb-15 10:00N 35°30' E 139°50'0 0.1
2018-Feb-15 09:27N 35°30' E 139°50'0 0.0
2018-Feb-15 08:57N 35°30' E 139°50'0 0.0
2018-Feb-15 08:30N 35°30' E 139°50'0 0.1
2018-Feb-15 08:00N 35°30' E 139°50'0 0.0
2018-Feb-15 07:30N 35°30' E 139°50'0 0.0
2018-Feb-15 07:00N 35°30' E 139°50'0 0.0
2018-Feb-15 06:24N 35°30' E 139°50'0 0.0
2018-Feb-15 05:57N 35°30' E 139°50'0 0.0
2018-Feb-15 05:30N 35°30' E 139°50'0 0.0
2018-Feb-15 05:00N 35°30' E 139°50'0 0.0
2018-Feb-15 04:30N 35°30' E 139°50'0 0.0
2018-Feb-15 03:54N 35°30' E 139°50'0 0.1
2018-Feb-15 03:30N 35°30' E 139°50'0 0.0
2018-Feb-15 02:54N 35°30' E 139°50'0 0.0
2018-Feb-15 02:30N 35°30' E 139°50'0 0.0
2018-Feb-15 02:00N 35°30' E 139°50'0 0.0
2018-Feb-15 01:30N 35°30' E 139°50'0 0.0
2018-Feb-15 01:00N 35°30' E 139°50'0 0.0
2018-Feb-15 00:30N 35°30' E 139°50'0 0.1
2018-Feb-15 00:00N 35°30' E 139°50'0 0.0
2018-Feb-14 23:30N 35°30' E 139°50'0 0.1
2018-Feb-14 23:00N 35°30' E 139°50'0 0.1
2018-Feb-14 22:30N 35°30' E 139°50'0 0.0
2018-Feb-14 22:00N 35°30' E 139°50'0 0.1
2018-Feb-14 21:30N 35°30' E 139°50'0 0.0
2018-Feb-14 21:00N 35°30' E 139°50'0 0.0
2018-Feb-14 20:29N 35°30' E 139°50'0 0.0
2018-Feb-14 20:00N 35°30' E 139°50'0 0.0
2018-Feb-14 19:30N 35°30' E 139°50'1 1.7
2018-Feb-14 19:00N 35°30' E 139°50'611.5
2018-Feb-14 18:30N 35°25' E 139°47'611.9
2018-Feb-14 18:00N 35°19' E 139°44'611.2
2018-Feb-14 17:30N 35°14' E 139°47'510.9
2018-Feb-14 17:00N 35°09' E 139°45'510.7
2018-Feb-14 16:30N 35°04' E 139°42'611.3
2018-Feb-14 15:59N 35°00' E 139°36'612.5
2018-Feb-14 15:30N 34°57' E 139°30'713.9
2018-Feb-14 14:59N 34°53' E 139°23'714.0
2018-Feb-14 14:31N 34°49' E 139°17'712.9
2018-Feb-14 13:57N 34°44' E 139°10'611.7
2018-Feb-14 13:27N 34°41' E 139°04'612.7
2018-Feb-14 12:59N 34°37' E 138°58'612.4
2018-Feb-14 12:30N 34°35' E 138°52'612.3
2018-Feb-14 12:00N 34°35' E 138°44'611.3
2018-Feb-14 11:29N 34°34' E 138°37'510.9
2018-Feb-14 11:00N 34°35' E 138°31'611.1
2018-Feb-14 10:29N 34°34' E 138°24'611.3
2018-Feb-14 09:59N 34°34' E 138°17'612.2
2018-Feb-14 09:31N 34°34' E 138°10'711.6
2018-Feb-14 08:53N 34°33' E 138°01'3410.9
2018-Feb-14 05:46N 34°32' E 137°20'311.3
2018-Feb-14 05:29N 34°32' E 137°16'1111.0
2018-Feb-14 04:30N 34°32' E 137°03'510.2
2018-Feb-14 04:00N 34°35' E 136°58'510.9
2018-Feb-14 03:31N 34°37' E 136°52'611.0
2018-Feb-14 03:00N 34°38' E 136°45'511.0
2018-Feb-14 02:30N 34°38' E 136°38'4 8.7
2018-Feb-14 02:00N 34°37' E 136°33'0 0.1
2018-Feb-14 01:29N 34°37' E 136°33'0 0.0
2018-Feb-14 01:01N 34°37' E 136°33'0 0.0
2018-Feb-14 00:30N 34°37' E 136°33'0 0.0
2018-Feb-14 00:01N 34°37' E 136°33'0 0.0
2018-Feb-13 23:29N 34°37' E 136°33'0 0.0
2018-Feb-13 22:20N 34°37' E 136°33'0 0.0
2018-Feb-13 21:56N 34°37' E 136°33'2 3.1
2018-Feb-13 21:25N 34°38' E 136°34'0 0.2
2018-Feb-13 20:59N 34°38' E 136°35'0 0.0
2018-Feb-13 20:16N 34°38' E 136°35'0 0.0
2018-Feb-13 19:59N 34°38' E 136°35'0 0.0
2018-Feb-13 19:13N 34°38' E 136°35'0 0.0
2018-Feb-13 19:00N 34°38' E 136°35'0 0.0
2018-Feb-13 18:29N 34°38' E 136°35'3 5.2
2018-Feb-13 17:58N 34°38' E 136°38'5 9.4
2018-Feb-13 17:28N 34°36' E 136°43'6 9.5
2018-Feb-13 16:52N 34°32' E 136°48'19 6.7
2018-Feb-13 14:00N 34°13' E 136°45'  
Track history (hours):
 
Tides and Currents Weather Stations Pressure Air Temp Water Temp Dewpoint Dewpoint Depression Visibility Wind Speed Wind Dir Waves Ship Positions

Kotohira Maru No.8

Last reported at 2018-Feb-23 12:29 UTC. Time now 2018-Feb-23 12:54 UTC.
Position N 34°36' E 138°56'.

Length 73 m; draft 4.3 m.

Type: Cargo ship. MMSI: 431500458.

Date/timePositionNaut miles runAvg speedWind from/ knotsBaromVisibWave heightAir tempDewpointWater temp
2018-Feb-23 12:29N 34°36' E 138°56'510.3
2018-Feb-23 11:58N 34°40' E 139°01'510.9
2018-Feb-23 11:30N 34°44' E 139°04'1210.2
2018-Feb-23 10:21N 34°53' E 139°12'5 9.4
2018-Feb-23 09:48N 34°56' E 139°17'3 9.4
2018-Feb-23 09:28N 34°58' E 139°21'4 9.2
2018-Feb-23 09:00N 35°00' E 139°25'5 9.5
2018-Feb-23 08:28N 35°03' E 139°30'510.2
2018-Feb-23 08:00N 35°05' E 139°36'510.2
2018-Feb-23 07:30N 35°07' E 139°41'510.1
2018-Feb-23 07:00N 35°11' E 139°45'510.2
2018-Feb-23 06:30N 35°16' E 139°46'510.2
2018-Feb-23 06:00N 35°20' E 139°42'5 9.9
2018-Feb-23 05:30N 35°25' E 139°43'510.6
2018-Feb-23 05:01N 35°29' E 139°48'5 9.5
2018-Feb-23 04:29N 35°33' E 139°49'3 5.7
2018-Feb-23 04:00N 35°35' E 139°46'0 0.0
2018-Feb-23 03:30N 35°35' E 139°46'0 0.0
2018-Feb-23 03:00N 35°35' E 139°46'0 0.0
2018-Feb-23 02:30N 35°35' E 139°46'0 0.0
2018-Feb-23 02:00N 35°35' E 139°46'0 0.0
2018-Feb-23 01:30N 35°35' E 139°46'0 0.0
2018-Feb-23 01:00N 35°35' E 139°46'0 0.0
2018-Feb-23 00:29N 35°35' E 139°46'0 0.0
2018-Feb-22 23:59N 35°35' E 139°46'0 0.0
2018-Feb-22 23:29N 35°35' E 139°46'0 0.0
2018-Feb-22 23:00N 35°35' E 139°46'0 0.1
2018-Feb-22 22:30N 35°35' E 139°46'4 7.9
2018-Feb-22 22:00N 35°33' E 139°50'2 5.0
2018-Feb-22 21:30N 35°30' E 139°50'0 0.0
2018-Feb-22 20:58N 35°30' E 139°50'0 0.1
2018-Feb-22 20:28N 35°30' E 139°50'0 0.1
2018-Feb-22 19:55N 35°30' E 139°50'0 0.0
2018-Feb-22 19:25N 35°30' E 139°50'0 0.0
2018-Feb-22 18:58N 35°30' E 139°50'0 0.0
2018-Feb-22 18:28N 35°30' E 139°50'0 0.0
2018-Feb-22 17:58N 35°30' E 139°50'0 0.0
2018-Feb-22 17:28N 35°30' E 139°50'0 0.0
2018-Feb-22 16:58N 35°30' E 139°50'0 0.0
2018-Feb-22 16:28N 35°30' E 139°50'0 0.0
2018-Feb-22 15:55N 35°30' E 139°50'0 0.0
2018-Feb-22 15:28N 35°30' E 139°50'0 0.0
2018-Feb-22 14:58N 35°30' E 139°50'0 0.0
2018-Feb-22 14:28N 35°30' E 139°50'0 0.0
2018-Feb-22 13:58N 35°30' E 139°50'0 0.0
2018-Feb-22 13:28N 35°30' E 139°50'0 0.1
2018-Feb-22 12:58N 35°30' E 139°50'0 0.0
2018-Feb-22 12:28N 35°30' E 139°50'0 0.0
2018-Feb-22 11:58N 35°30' E 139°50'0 0.0
2018-Feb-22 11:28N 35°30' E 139°50'0 0.0
2018-Feb-22 10:58N 35°30' E 139°50'0 0.0
2018-Feb-22 10:28N 35°30' E 139°50'0 0.0
2018-Feb-22 09:58N 35°30' E 139°50'0 0.0
2018-Feb-22 09:28N 35°30' E 139°50'0 0.0
2018-Feb-22 08:58N 35°30' E 139°50'0 0.0
2018-Feb-22 08:31N 35°30' E 139°50'0 0.0
2018-Feb-22 08:00N 35°30' E 139°50'1 1.2
2018-Feb-22 07:30N 35°30' E 139°50'4 7.3
2018-Feb-22 07:00N 35°31' E 139°45'0 0.0
2018-Feb-22 06:30N 35°31' E 139°45'0 0.0
2018-Feb-22 05:58N 35°31' E 139°45'0 0.0
2018-Feb-22 05:28N 35°31' E 139°45'0 0.0
2018-Feb-22 04:55N 35°31' E 139°45'0 0.0
2018-Feb-22 04:28N 35°31' E 139°45'0 0.0
2018-Feb-22 03:55N 35°31' E 139°45'0 0.0
2018-Feb-22 03:28N 35°31' E 139°45'0 0.0
2018-Feb-22 03:00N 35°31' E 139°45'0 0.0
2018-Feb-22 02:30N 35°31' E 139°45'0 0.0
2018-Feb-22 02:01N 35°31' E 139°45'2 4.3
2018-Feb-22 01:31N 35°30' E 139°48'5 9.2
2018-Feb-22 01:01N 35°25' E 139°46'4 9.0
2018-Feb-22 00:31N 35°21' E 139°45'4 8.2
2018-Feb-22 00:00N 35°17' E 139°45'5 9.0
2018-Feb-21 23:30N 35°13' E 139°47'5 9.3
2018-Feb-21 23:01N 35°08' E 139°45'6 9.2
2018-Feb-21 22:23N 35°04' E 139°41'3 8.9
2018-Feb-21 22:00N 35°02' E 139°37'5 9.1
2018-Feb-21 21:28N 34°59' E 139°33'10 8.9
2018-Feb-21 20:21N 34°53' E 139°23'3 9.0
2018-Feb-21 20:00N 34°51' E 139°20'5 9.4
2018-Feb-21 19:30N 34°48' E 139°15'5 9.4
2018-Feb-21 18:59N 34°45' E 139°11'4 9.2
2018-Feb-21 18:30N 34°42' E 139°07'4 8.8
2018-Feb-21 18:00N 34°39' E 139°03'510.4
2018-Feb-21 17:29N 34°36' E 138°58'610.3
2018-Feb-21 16:54N 34°34' E 138°51'5 9.8
2018-Feb-21 16:23N 34°33' E 138°45'4 9.9
2018-Feb-21 16:00N 34°33' E 138°40'510.0
2018-Feb-21 15:29N 34°32' E 138°34'5 9.8
2018-Feb-21 14:57N 34°32' E 138°27'510.3
2018-Feb-21 14:25N 34°32' E 138°21'510.3
2018-Feb-21 13:58N 34°32' E 138°15'710.8
2018-Feb-21 13:20N 34°31' E 138°07'510.3
2018-Feb-21 12:54N 34°31' E 138°02'65 9.5
2018-Feb-21 06:04N 34°14' E 136°45'210.0
2018-Feb-21 05:51N 34°14' E 136°43'10 1.5
2018-Feb-20 23:19N 34°13' E 136°31'24 1.3
2018-Feb-20 05:03N 34°29' E 136°52'111.1
2018-Feb-20 04:59N 34°29' E 136°52'510.9
2018-Feb-20 04:30N 34°33' E 136°47'611.7
2018-Feb-20 03:58N 34°37' E 136°41'611.2
2018-Feb-20 03:28N 34°38' E 136°35'2 2.0
2018-Feb-20 02:43N 34°37' E 136°33'0 0.0
2018-Feb-20 02:20N 34°37' E 136°33'0 0.0
2018-Feb-19 23:47N 34°37' E 136°33'0 0.0
2018-Feb-19 23:25N 34°37' E 136°33'0 0.0
2018-Feb-19 23:00N 34°37' E 136°33'0 0.0
2018-Feb-19 22:30N 34°37' E 136°33'0 0.0
2018-Feb-19 21:59N 34°37' E 136°33'2 3.7
2018-Feb-19 21:28N 34°38' E 136°35'3 5.2
2018-Feb-19 20:55N 34°38' E 136°38'4 9.5
2018-Feb-19 20:29N 34°37' E 136°43'5 9.5
2018-Feb-19 19:58N 34°33' E 136°47'5 9.1
2018-Feb-19 19:27N 34°30' E 136°51'17 6.3
2018-Feb-19 16:43N 34°14' E 136°45'410.4
2018-Feb-19 16:22N 34°12' E 136°41'81 7.9
2018-Feb-19 06:02N 33°45' E 135°09'110.3
2018-Feb-19 05:54N 33°46' E 135°08'410.3
2018-Feb-19 05:30N 33°49' E 135°04'510.5
2018-Feb-19 05:00N 33°53' E 135°01'510.4
2018-Feb-19 04:30N 33°57' E 134°57'510.2
2018-Feb-19 03:59N 34°02' E 134°53'510.5
2018-Feb-19 03:30N 34°05' E 134°49'510.5
2018-Feb-19 03:00N 34°09' E 134°44'510.5
2018-Feb-19 02:30N 34°13' E 134°40'510.3
2018-Feb-19 02:00N 34°16' E 134°35'5 9.7
2018-Feb-19 01:30N 34°18' E 134°30'5 9.8
2018-Feb-19 01:00N 34°20' E 134°25'12 9.0
2018-Feb-18 23:42N 34°24' E 134°11'2 8.5
2018-Feb-18 23:27N 34°25' E 134°09'5 0.5
2018-Feb-18 12:09N 34°27' E 134°03'512.7
2018-Feb-18 11:48N 34°26' E 134°08'512.8
2018-Feb-18 11:24N 34°24' E 134°14'511.9
2018-Feb-18 10:59N 34°25' E 134°20'611.7
2018-Feb-18 10:30N 34°27' E 134°27'611.3
2018-Feb-18 10:00N 34°29' E 134°33'611.2
2018-Feb-18 09:30N 34°31' E 134°39'510.8
2018-Feb-18 09:00N 34°33' E 134°46'510.3
2018-Feb-18 08:30N 34°35' E 134°51'5 9.4
2018-Feb-18 08:00N 34°37' E 134°56'4 8.1
2018-Feb-18 07:30N 34°37' E 135°01'4 7.8
2018-Feb-18 07:00N 34°36' E 135°06'510.6
2018-Feb-18 06:30N 34°37' E 135°12'510.2
2018-Feb-18 06:00N 34°39' E 135°18'3 6.5
2018-Feb-18 05:30N 34°42' E 135°17'0 0.0
2018-Feb-18 05:00N 34°42' E 135°17'0 0.0
2018-Feb-18 04:29N 34°42' E 135°17'0 0.0
2018-Feb-18 04:00N 34°42' E 135°17'0 0.0
2018-Feb-18 03:30N 34°42' E 135°17'0 0.0
2018-Feb-18 03:00N 34°42' E 135°17'0 0.0
2018-Feb-18 02:30N 34°42' E 135°17'0 0.0
2018-Feb-18 02:00N 34°42' E 135°17'0 0.0
2018-Feb-18 01:30N 34°42' E 135°17'0 0.0
2018-Feb-18 01:00N 34°42' E 135°17'0 0.0
2018-Feb-18 00:30N 34°42' E 135°17'0 0.0
2018-Feb-18 00:00N 34°42' E 135°17'0 0.0
2018-Feb-17 23:30N 34°42' E 135°17'0 0.0
2018-Feb-17 23:01N 34°42' E 135°17'4 7.6
2018-Feb-17 22:30N 34°39' E 135°19'0 0.2
2018-Feb-17 22:00N 34°39' E 135°19'0 0.0
2018-Feb-17 21:30N 34°39' E 135°19'0 0.1
2018-Feb-17 21:00N 34°39' E 135°19'0 0.1
2018-Feb-17 20:30N 34°39' E 135°19'0 0.1
2018-Feb-17 20:00N 34°39' E 135°19'4 7.0
2018-Feb-17 19:30N 34°36' E 135°17'510.1
2018-Feb-17 19:00N 34°31' E 135°14'5 9.5
2018-Feb-17 18:30N 34°27' E 135°11'5 9.3
2018-Feb-17 18:00N 34°23' E 135°08'5 9.2
2018-Feb-17 17:30N 34°20' E 135°05'4 7.8
2018-Feb-17 17:00N 34°16' E 135°03'4 8.8
2018-Feb-17 16:30N 34°12' E 135°02'5 9.1
2018-Feb-17 16:00N 34°07' E 135°02'5 9.0
2018-Feb-17 15:30N 34°03' E 135°02'4 8.8
2018-Feb-17 15:00N 33°58' E 135°02'4 8.1
2018-Feb-17 14:29N 33°54' E 135°02'59 6.5
2018-Feb-17 05:24N 33°53' E 136°14'510.5
2018-Feb-17 04:54N 33°57' E 136°18'118 9.0
2018-Feb-16 15:42N 34°34' E 138°34'4 9.1
2018-Feb-16 15:17N 34°35' E 138°38'3 8.7
2018-Feb-16 14:58N 34°35' E 138°42'4 8.8
2018-Feb-16 14:30N 34°35' E 138°47'6 8.4
2018-Feb-16 13:43N 34°37' E 138°54'4 8.9
2018-Feb-16 13:19N 34°39' E 138°58'3 8.7
2018-Feb-16 12:57N 34°41' E 139°01'26 9.7
2018-Feb-16 10:17N 34°59' E 139°23'3 9.2
2018-Feb-16 10:00N 35°00' E 139°26'4 9.1
2018-Feb-16 09:30N 35°03' E 139°30'5 9.8
2018-Feb-16 08:59N 35°05' E 139°36'510.6
2018-Feb-16 08:30N 35°07' E 139°41'510.4
2018-Feb-16 08:00N 35°12' E 139°45'2 3.7
2018-Feb-16 07:29N 35°14' E 139°43'0 0.0
2018-Feb-16 07:00N 35°14' E 139°43'0 0.0
2018-Feb-16 06:30N 35°14' E 139°43'0 0.0
2018-Feb-16 05:58N 35°14' E 139°43'0 0.0
2018-Feb-16 05:30N 35°14' E 139°43'0 0.0
2018-Feb-16 05:00N 35°14' E 139°43'0 0.0
2018-Feb-16 04:30N 35°14' E 139°43'0 0.0
2018-Feb-16 04:00N 35°14' E 139°43'1 2.6
2018-Feb-16 03:30N 35°14' E 139°45'3 5.9
2018-Feb-16 03:00N 35°17' E 139°45'510.7
2018-Feb-16 02:30N 35°21' E 139°42'510.6
2018-Feb-16 02:00N 35°26' E 139°45'611.3
2018-Feb-16 01:30N 35°30' E 139°50'0 0.7
2018-Feb-16 01:00N 35°30' E 139°50'0 0.0
2018-Feb-16 00:30N 35°30' E 139°50'0 0.0
2018-Feb-16 00:00N 35°30' E 139°50'0 0.0
2018-Feb-15 23:30N 35°30' E 139°50'0 0.0
2018-Feb-15 23:00N 35°30' E 139°50'0 0.0
2018-Feb-15 22:30N 35°30' E 139°50'0 0.0
2018-Feb-15 22:00N 35°30' E 139°50'0 0.0
2018-Feb-15 21:30N 35°30' E 139°50'0 0.0
2018-Feb-15 21:00N 35°30' E 139°50'0 0.0
2018-Feb-15 20:30N 35°30' E 139°50'0 0.0
2018-Feb-15 19:57N 35°30' E 139°50'0 0.0
2018-Feb-15 19:30N 35°30' E 139°50'0 0.0
2018-Feb-15 18:57N 35°30' E 139°50'0 0.0
2018-Feb-15 18:30N 35°30' E 139°50'0 0.0
2018-Feb-15 17:57N 35°30' E 139°50'0 0.1
2018-Feb-15 17:30N 35°30' E 139°50'0 0.1
2018-Feb-15 17:00N 35°30' E 139°50'0 0.0
2018-Feb-15 16:30N 35°30' E 139°50'0 0.0
2018-Feb-15 16:00N 35°30' E 139°50'0 0.1
2018-Feb-15 15:27N 35°30' E 139°50'0 0.1
2018-Feb-15 14:54N 35°30' E 139°50'0 0.0
2018-Feb-15 14:30N 35°30' E 139°50'0 0.0
2018-Feb-15 14:00N 35°30' E 139°50'0 0.0
2018-Feb-15 13:30N 35°30' E 139°50'0 0.1
2018-Feb-15 12:57N 35°30' E 139°50'0 0.0
2018-Feb-15 12:24N 35°30' E 139°50'0 0.0
2018-Feb-15 12:00N 35°30' E 139°50'0 0.0
2018-Feb-15 11:30N 35°30' E 139°50'0 0.0
2018-Feb-15 11:00N 35°30' E 139°50'0 0.0
2018-Feb-15 10:27N 35°30' E 139°50'0 0.1
2018-Feb-15 10:00N 35°30' E 139°50'0 0.1
2018-Feb-15 09:27N 35°30' E 139°50'0 0.0
2018-Feb-15 08:57N 35°30' E 139°50'0 0.0
2018-Feb-15 08:30N 35°30' E 139°50'0 0.1
2018-Feb-15 08:00N 35°30' E 139°50'0 0.0
2018-Feb-15 07:30N 35°30' E 139°50'0 0.0
2018-Feb-15 07:00N 35°30' E 139°50'0 0.0
2018-Feb-15 06:24N 35°30' E 139°50'0 0.0
2018-Feb-15 05:57N 35°30' E 139°50'0 0.0
2018-Feb-15 05:30N 35°30' E 139°50'0 0.0
2018-Feb-15 05:00N 35°30' E 139°50'0 0.0
2018-Feb-15 04:30N 35°30' E 139°50'0 0.0
2018-Feb-15 03:54N 35°30' E 139°50'0 0.1
2018-Feb-15 03:30N 35°30' E 139°50'0 0.0
2018-Feb-15 02:54N 35°30' E 139°50'0 0.0
2018-Feb-15 02:30N 35°30' E 139°50'0 0.0
2018-Feb-15 02:00N 35°30' E 139°50'0 0.0
2018-Feb-15 01:30N 35°30' E 139°50'0 0.0
2018-Feb-15 01:00N 35°30' E 139°50'0 0.0
2018-Feb-15 00:30N 35°30' E 139°50'0 0.1
2018-Feb-15 00:00N 35°30' E 139°50'0 0.0
2018-Feb-14 23:30N 35°30' E 139°50'0 0.1
2018-Feb-14 23:00N 35°30' E 139°50'0 0.1
2018-Feb-14 22:30N 35°30' E 139°50'0 0.0
2018-Feb-14 22:00N 35°30' E 139°50'0 0.1
2018-Feb-14 21:30N 35°30' E 139°50'0 0.0
2018-Feb-14 21:00N 35°30' E 139°50'0 0.0
2018-Feb-14 20:29N 35°30' E 139°50'0 0.0
2018-Feb-14 20:00N 35°30' E 139°50'0 0.0
2018-Feb-14 19:30N 35°30' E 139°50'1 1.7
2018-Feb-14 19:00N 35°30' E 139°50'611.5
2018-Feb-14 18:30N 35°25' E 139°47'611.9
2018-Feb-14 18:00N 35°19' E 139°44'611.2
2018-Feb-14 17:30N 35°14' E 139°47'510.9
2018-Feb-14 17:00N 35°09' E 139°45'510.7
2018-Feb-14 16:30N 35°04' E 139°42'611.3
2018-Feb-14 15:59N 35°00' E 139°36'612.5
2018-Feb-14 15:30N 34°57' E 139°30'713.9
2018-Feb-14 14:59N 34°53' E 139°23'714.0
2018-Feb-14 14:31N 34°49' E 139°17'712.9
2018-Feb-14 13:57N 34°44' E 139°10'611.7
2018-Feb-14 13:27N 34°41' E 139°04'612.7
2018-Feb-14 12:59N 34°37' E 138°58'612.4
2018-Feb-14 12:30N 34°35' E 138°52'612.3
2018-Feb-14 12:00N 34°35' E 138°44'611.3
2018-Feb-14 11:29N 34°34' E 138°37'510.9
2018-Feb-14 11:00N 34°35' E 138°31'611.1
2018-Feb-14 10:29N 34°34' E 138°24'611.3
2018-Feb-14 09:59N 34°34' E 138°17'612.2
2018-Feb-14 09:31N 34°34' E 138°10'711.6
2018-Feb-14 08:53N 34°33' E 138°01'3410.9
2018-Feb-14 05:46N 34°32' E 137°20'311.3
2018-Feb-14 05:29N 34°32' E 137°16'1111.0
2018-Feb-14 04:30N 34°32' E 137°03'510.2
2018-Feb-14 04:00N 34°35' E 136°58'510.9
2018-Feb-14 03:31N 34°37' E 136°52'611.0
2018-Feb-14 03:00N 34°38' E 136°45'511.0
2018-Feb-14 02:30N 34°38' E 136°38'4 8.7
2018-Feb-14 02:00N 34°37' E 136°33'0 0.1
2018-Feb-14 01:29N 34°37' E 136°33'0 0.0
2018-Feb-14 01:01N 34°37' E 136°33'0 0.0
2018-Feb-14 00:30N 34°37' E 136°33'0 0.0
2018-Feb-14 00:01N 34°37' E 136°33'0 0.0
2018-Feb-13 23:29N 34°37' E 136°33'0 0.0
2018-Feb-13 22:20N 34°37' E 136°33'0 0.0
2018-Feb-13 21:56N 34°37' E 136°33'2 3.1
2018-Feb-13 21:25N 34°38' E 136°34'0 0.2
2018-Feb-13 20:59N 34°38' E 136°35'0 0.0
2018-Feb-13 20:16N 34°38' E 136°35'0 0.0
2018-Feb-13 19:59N 34°38' E 136°35'0 0.0
2018-Feb-13 19:13N 34°38' E 136°35'0 0.0
2018-Feb-13 19:00N 34°38' E 136°35'0 0.0
2018-Feb-13 18:29N 34°38' E 136°35'3 5.2
2018-Feb-13 17:58N 34°38' E 136°38'5 9.4
2018-Feb-13 17:28N 34°36' E 136°43'6 9.5
2018-Feb-13 16:52N 34°32' E 136°48'19 6.7
2018-Feb-13 14:00N 34°13' E 136°45'  

Dump ship's entire track history